createdAt,value
2023-03-05T00:01:22.575Z,100.00
2023-03-05T00:03:49.357Z,100.00
2023-03-05T00:06:17.383Z,100.00
2023-03-05T00:08:44.147Z,100.00
2023-03-05T00:11:12.061Z,100.00
2023-03-05T00:13:38.581Z,100.00
2023-03-05T00:16:08.083Z,100.00
2023-03-05T00:18:34.716Z,100.00
2023-03-05T00:21:01.058Z,100.00
2023-03-05T00:23:27.612Z,100.00
2023-03-05T00:25:54.061Z,100.00
2023-03-05T00:28:20.516Z,100.00
2023-03-05T00:30:46.979Z,100.00
2023-03-05T00:33:13.922Z,100.00
2023-03-05T00:35:45.675Z,100.00
2023-03-05T00:38:13.338Z,100.00
2023-03-05T00:40:41.779Z,100.00
2023-03-05T00:43:09.771Z,100.00
2023-03-05T00:45:36.607Z,100.00
2023-03-05T00:48:03.764Z,100.00
2023-03-05T00:50:30.572Z,100.00
2023-03-05T00:52:57.047Z,100.00
2023-03-05T00:55:23.413Z,100.00
2023-03-05T00:57:49.820Z,100.00
2023-03-05T01:00:16.746Z,99.33
2023-03-05T01:02:43.541Z,99.80
2023-03-05T01:05:14.473Z,100.00
2023-03-05T01:07:41.420Z,100.00
2023-03-05T01:10:12.093Z,100.00
2023-03-05T01:12:39.380Z,100.00
2023-03-05T01:15:06.572Z,100.00
2023-03-05T01:17:33.238Z,100.00
2023-03-05T01:19:59.654Z,100.00
2023-03-05T01:22:26.116Z,100.00
2023-03-05T01:24:52.473Z,100.00
2023-03-05T01:27:18.869Z,100.00
2023-03-05T01:29:45.253Z,100.00
2023-03-05T01:32:11.675Z,100.00
2023-03-05T01:34:38.146Z,100.00
2023-03-05T01:37:04.636Z,100.00
2023-03-05T01:39:31.023Z,100.00
2023-03-05T01:41:57.373Z,100.00
2023-03-05T01:44:27.212Z,100.00
2023-03-05T01:46:53.772Z,100.00
2023-03-05T01:49:29.437Z,99.73
2023-03-05T01:52:11.755Z,99.10
2023-03-05T01:54:45.171Z,99.36
2023-03-05T01:57:20.587Z,99.49
2023-03-05T01:59:51.158Z,99.24
2023-03-05T02:02:18.611Z,99.28
2023-03-05T02:05:08.201Z,98.86
2023-03-05T02:07:37.215Z,99.24
2023-03-05T02:10:25.812Z,99.11
2023-03-05T02:12:54.592Z,99.57
2023-03-05T02:15:21.605Z,98.80
2023-03-05T02:17:48.572Z,99.48
2023-03-05T02:20:21.524Z,98.68
2023-03-05T02:22:47.987Z,99.13
2023-03-05T02:25:20.535Z,98.58
2023-03-05T02:27:54.993Z,98.96
2023-03-05T02:30:21.543Z,99.02
2023-03-05T02:32:47.974Z,97.39
2023-03-05T02:35:14.423Z,97.95
2023-03-05T02:37:41.321Z,97.13
2023-03-05T02:40:08.782Z,97.81
2023-03-05T02:42:35.598Z,98.82
2023-03-05T02:45:02.596Z,98.65
2023-03-05T02:47:29.275Z,97.99
2023-03-05T02:49:56.349Z,98.24
2023-03-05T02:52:25.653Z,97.98
2023-03-05T02:54:52.590Z,99.08
2023-03-05T02:57:19.412Z,99.43
2023-03-05T02:59:46.332Z,99.00
2023-03-05T03:02:13.381Z,98.84
2023-03-05T03:04:40.191Z,99.42
2023-03-05T03:07:06.547Z,100.00
2023-03-05T03:09:35.886Z,100.00
2023-03-05T03:12:03.273Z,100.00
2023-03-05T03:14:38.993Z,100.00
2023-03-05T03:17:11.694Z,100.00
2023-03-05T03:19:39.068Z,100.00
2023-03-05T03:22:07.365Z,100.00
2023-03-05T03:24:34.795Z,100.00
2023-03-05T03:27:01.781Z,100.00
2023-03-05T03:29:28.367Z,100.00
2023-03-05T03:31:54.757Z,100.00
2023-03-05T03:34:21.400Z,100.00
2023-03-05T03:36:49.325Z,100.00
2023-03-05T03:39:16.480Z,100.00
2023-03-05T03:41:48.598Z,100.00
2023-03-05T03:44:17.500Z,100.00
2023-03-05T03:46:46.157Z,100.00
2023-03-05T03:49:19.325Z,100.00
2023-03-05T03:51:46.357Z,100.00
2023-03-05T03:54:13.840Z,100.00
2023-03-05T03:56:40.370Z,100.00
2023-03-05T03:59:06.770Z,100.00
2023-03-05T04:01:33.406Z,100.00
2023-03-05T04:03:59.985Z,100.00
2023-03-05T04:06:26.460Z,100.00
2023-03-05T04:08:52.841Z,100.00
2023-03-05T04:11:19.475Z,100.00
2023-03-05T04:13:46.872Z,100.00
2023-03-05T04:16:14.612Z,100.00
2023-03-05T04:18:41.206Z,100.00
2023-03-05T04:21:08.596Z,100.00
2023-03-05T04:23:36.415Z,100.00
2023-03-05T04:26:03.364Z,99.06
2023-03-05T04:28:29.786Z,98.58
2023-03-05T04:30:56.292Z,98.92
2023-03-05T04:33:22.732Z,99.73
2023-03-05T04:35:49.165Z,98.99
2023-03-05T04:38:15.532Z,99.37
2023-03-05T04:40:42.041Z,99.15
2023-03-05T04:43:08.411Z,99.56
2023-03-05T04:45:34.830Z,100.00
2023-03-05T04:48:01.199Z,99.48
2023-03-05T04:50:27.626Z,99.33
2023-03-05T04:52:54.162Z,99.29
2023-03-05T04:55:20.521Z,98.81
2023-03-05T04:57:46.962Z,98.75
2023-03-05T05:00:15.387Z,98.49
2023-03-05T05:02:43.180Z,99.12
2023-03-05T05:05:13.537Z,99.38
2023-03-05T05:07:40.083Z,100.00
2023-03-05T05:10:08.165Z,100.00
2023-03-05T05:12:35.443Z,100.00
2023-03-05T05:15:02.527Z,100.00
2023-03-05T05:17:30.883Z,100.00
2023-03-05T05:19:57.519Z,100.00
2023-03-05T05:22:23.958Z,100.00
2023-03-05T05:24:50.438Z,100.00
2023-03-05T05:27:16.828Z,100.00
2023-03-05T05:29:43.191Z,100.00
2023-03-05T05:32:09.639Z,100.00
2023-03-05T05:34:36.041Z,100.00
2023-03-05T05:37:02.389Z,100.00
2023-03-05T05:39:28.818Z,100.00
2023-03-05T05:41:55.187Z,100.00
2023-03-05T05:44:21.556Z,100.00
2023-03-05T05:46:47.960Z,100.00
2023-03-05T05:49:14.400Z,100.00
2023-03-05T05:51:41.231Z,100.00
2023-03-05T05:54:07.639Z,100.00
2023-03-05T05:56:34.147Z,100.00
2023-03-05T05:59:00.549Z,100.00
2023-03-05T06:01:30.512Z,100.00
2023-03-05T06:03:57.730Z,100.00
2023-03-05T06:06:25.965Z,100.00
2023-03-05T06:08:53.023Z,100.00
2023-03-05T06:11:20.247Z,100.00
2023-03-05T06:13:47.793Z,100.00
2023-03-05T06:16:21.934Z,100.00
2023-03-05T06:18:48.283Z,100.00
2023-03-05T06:21:16.991Z,100.00
2023-03-05T06:23:44.273Z,100.00
2023-03-05T06:26:12.810Z,100.00
2023-03-05T06:28:40.550Z,100.00
2023-03-05T06:31:16.530Z,100.00
2023-03-05T06:33:43.404Z,100.00
2023-03-05T06:36:13.301Z,100.00
2023-03-05T06:38:39.855Z,100.00
2023-03-05T06:41:12.680Z,100.00
2023-03-05T06:43:41.445Z,100.00
2023-03-05T06:46:35.115Z,100.00
2023-03-05T06:49:03.720Z,100.00
2023-03-05T06:51:33.272Z,100.00
2023-03-05T06:54:03.143Z,100.00
2023-03-05T06:56:29.723Z,100.00
2023-03-05T06:58:56.712Z,100.00
2023-03-05T07:01:23.726Z,100.00
2023-03-05T07:03:51.553Z,100.00
2023-03-05T07:06:18.651Z,100.00
2023-03-05T07:08:45.111Z,100.00
2023-03-05T07:11:18.515Z,100.00
2023-03-05T07:13:47.611Z,100.00
2023-03-05T07:16:17.083Z,100.00
2023-03-05T07:18:44.231Z,100.00
2023-03-05T07:21:14.779Z,100.00
2023-03-05T07:23:41.131Z,100.00
2023-03-05T07:26:07.523Z,100.00
2023-03-05T07:28:34.449Z,100.00
2023-03-05T07:31:04.509Z,100.00
2023-03-05T07:33:32.177Z,100.00
2023-03-05T07:35:58.667Z,100.00
2023-03-05T07:38:25.197Z,100.00
2023-03-05T07:40:51.625Z,100.00
2023-03-05T07:43:18.130Z,100.00
2023-03-05T07:45:45.819Z,100.00
2023-03-05T07:48:15.158Z,100.00
2023-03-05T07:50:41.625Z,100.00
2023-03-05T07:53:08.707Z,99.55
2023-03-05T07:55:35.257Z,96.99
2023-03-05T07:58:01.602Z,95.91
2023-03-05T08:00:27.986Z,96.41
2023-03-05T08:02:54.441Z,96.19
2023-03-05T08:05:20.867Z,95.43
2023-03-05T08:07:47.215Z,95.48
2023-03-05T08:10:13.583Z,93.81
2023-03-05T08:12:39.930Z,94.62
2023-03-05T08:15:07.020Z,95.46
2023-03-05T08:17:33.369Z,95.48
2023-03-05T08:20:00.235Z,95.06
2023-03-05T08:22:26.876Z,95.72
2023-03-05T08:24:53.236Z,94.60
2023-03-05T08:27:19.642Z,95.40
2023-03-05T08:29:45.991Z,93.01
2023-03-05T08:32:12.447Z,94.85
2023-03-05T08:34:38.859Z,95.17
2023-03-05T08:37:06.107Z,94.17
2023-03-05T08:39:32.553Z,94.83
2023-03-05T08:41:58.920Z,95.71
2023-03-05T08:44:25.311Z,95.84
2023-03-05T08:46:51.687Z,95.12
2023-03-05T08:49:18.062Z,95.07
2023-03-05T08:51:44.445Z,95.71
2023-03-05T08:54:10.848Z,94.92
2023-03-05T08:56:37.379Z,92.83
2023-03-05T08:59:03.941Z,93.87
2023-03-05T09:01:31.802Z,93.03
2023-03-05T09:03:59.229Z,93.86
2023-03-05T09:06:26.431Z,93.12
2023-03-05T09:08:53.561Z,93.60
2023-03-05T09:11:20.608Z,93.98
2023-03-05T09:13:47.028Z,94.79
2023-03-05T09:16:16.517Z,95.58
2023-03-05T09:18:43.806Z,95.99
2023-03-05T09:21:13.400Z,97.68
2023-03-05T09:23:40.650Z,97.06
2023-03-05T09:26:13.084Z,97.31
2023-03-05T09:28:40.282Z,97.40
2023-03-05T09:31:08.268Z,97.32
2023-03-05T09:33:35.477Z,96.22
2023-03-05T09:36:03.273Z,95.54
2023-03-05T09:38:30.287Z,95.79
2023-03-05T09:41:07.597Z,95.12
2023-03-05T09:43:55.046Z,96.12
2023-03-05T09:46:48.365Z,96.20
2023-03-05T09:49:31.053Z,95.14
2023-03-05T09:52:05.418Z,94.34
2023-03-05T09:54:41.800Z,94.15
2023-03-05T09:57:18.333Z,94.88
2023-03-05T09:59:59.291Z,94.23
2023-03-05T10:02:30.977Z,93.70
2023-03-05T10:05:24.776Z,93.26
2023-03-05T10:07:57.537Z,94.40
2023-03-05T10:10:41.910Z,95.51
2023-03-05T10:13:16.599Z,94.53
2023-03-05T10:15:59.045Z,94.07
2023-03-05T10:18:57.661Z,95.13
2023-03-05T10:21:40.255Z,94.82
2023-03-05T10:24:43.950Z,96.59
2023-03-05T10:27:33.618Z,94.59
2023-03-05T10:30:29.923Z,95.08
2023-03-05T10:33:15.476Z,94.98
2023-03-05T10:35:48.107Z,95.15
2023-03-05T10:38:29.458Z,95.70
2023-03-05T10:40:55.908Z,95.87
2023-03-05T10:43:48.359Z,96.07
2023-03-05T10:46:17.622Z,94.16
2023-03-05T10:48:50.858Z,92.28
2023-03-05T10:51:23.569Z,93.59
2023-03-05T10:53:57.831Z,91.92
2023-03-05T10:56:27.001Z,90.31
2023-03-05T10:58:54.049Z,92.29
2023-03-05T11:01:24.747Z,92.83
2023-03-05T11:04:23.774Z,93.26
2023-03-05T11:06:50.472Z,92.01
2023-03-05T11:09:21.457Z,92.20
2023-03-05T11:12:12.149Z,91.58
2023-03-05T11:14:47.697Z,90.86
2023-03-05T11:18:04.965Z,90.03
2023-03-05T11:20:36.621Z,88.81
2023-03-05T11:23:38.231Z,88.21
2023-03-05T11:26:13.545Z,88.15
2023-03-05T11:28:55.256Z,88.42
2023-03-05T11:31:31.002Z,84.10
2023-03-05T11:34:25.559Z,82.14
2023-03-05T11:36:53.115Z,84.09
2023-03-05T11:39:24.804Z,82.55
2023-03-05T11:41:59.500Z,80.45
2023-03-05T11:44:47.989Z,81.55
2023-03-05T11:47:35.855Z,81.78
2023-03-05T11:50:16.946Z,80.71
2023-03-05T11:52:54.508Z,81.73
2023-03-05T11:55:28.371Z,81.90
2023-03-05T11:58:03.915Z,80.33
2023-03-05T12:00:32.603Z,81.65
2023-03-05T12:03:03.921Z,79.55
2023-03-05T12:05:31.963Z,77.97
2023-03-05T12:08:01.705Z,78.66
2023-03-05T12:10:28.556Z,77.20
2023-03-05T12:13:23.638Z,77.54
2023-03-05T12:16:04.683Z,77.20
2023-03-05T12:18:37.065Z,76.85
2023-03-05T12:21:22.101Z,77.02
2023-03-05T12:23:50.299Z,77.82
2023-03-05T12:26:16.748Z,78.44
2023-03-05T12:28:43.134Z,77.62
2023-03-05T12:31:09.472Z,76.10
2023-03-05T12:33:43.406Z,75.29
2023-03-05T12:36:21.669Z,76.65
2023-03-05T12:38:51.900Z,76.46
2023-03-05T12:41:25.753Z,76.54
2023-03-05T12:44:10.169Z,77.37
2023-03-05T12:46:44.665Z,77.08
2023-03-05T12:49:20.246Z,76.73
2023-03-05T12:51:51.392Z,73.29
2023-03-05T12:54:34.333Z,75.13
2023-03-05T12:57:17.101Z,74.19
2023-03-05T12:59:48.616Z,73.16
2023-03-05T13:02:27.306Z,74.31
2023-03-05T13:04:59.433Z,73.28
2023-03-05T13:07:25.983Z,73.06
2023-03-05T13:09:57.701Z,73.55
2023-03-05T13:12:27.303Z,73.02
2023-03-05T13:15:04.240Z,73.20
2023-03-05T13:17:51.830Z,72.49
2023-03-05T13:20:40.529Z,73.08
2023-03-05T13:23:26.506Z,73.27
2023-03-05T13:26:20.033Z,73.65
2023-03-05T13:29:07.624Z,74.24
2023-03-05T13:31:36.609Z,74.63
2023-03-05T13:34:15.838Z,74.55
2023-03-05T13:36:47.265Z,73.91
2023-03-05T13:39:35.377Z,76.17
2023-03-05T13:42:35.071Z,74.14
2023-03-05T13:45:22.936Z,74.00
2023-03-05T13:47:58.601Z,72.41
2023-03-05T13:50:30.950Z,72.60
2023-03-05T13:53:14.747Z,72.19
2023-03-05T13:55:41.346Z,72.08
2023-03-05T13:58:49.247Z,72.46
2023-03-05T14:01:28.248Z,73.26
2023-03-05T14:03:58.441Z,71.93
2023-03-05T14:06:28.215Z,71.85
2023-03-05T14:09:02.437Z,72.63
2023-03-05T14:11:28.850Z,73.42
2023-03-05T14:14:15.550Z,73.60
2023-03-05T14:16:42.093Z,74.42
2023-03-05T14:19:31.617Z,74.33
2023-03-05T14:21:58.051Z,74.68
2023-03-05T14:24:28.516Z,73.96
2023-03-05T14:26:57.091Z,75.59
2023-03-05T14:29:26.250Z,73.45
2023-03-05T14:31:59.218Z,73.79
2023-03-05T14:34:31.735Z,73.89
2023-03-05T14:37:04.681Z,74.32
2023-03-05T14:39:50.969Z,75.80
2023-03-05T14:42:30.710Z,73.32
2023-03-05T14:45:00.231Z,75.64
2023-03-05T14:47:27.653Z,76.11
2023-03-05T14:49:54.353Z,76.78
2023-03-05T14:52:23.710Z,76.81
2023-03-05T14:54:50.926Z,76.13
2023-03-05T14:57:21.410Z,76.00
2023-03-05T14:59:47.761Z,77.36
2023-03-05T15:02:19.925Z,77.14
2023-03-05T15:04:46.765Z,78.13
2023-03-05T15:07:25.611Z,77.97
2023-03-05T15:09:52.050Z,78.84
2023-03-05T15:12:18.575Z,78.17
2023-03-05T15:14:45.120Z,78.58
2023-03-05T15:17:28.624Z,79.32
2023-03-05T15:19:55.012Z,79.45
2023-03-05T15:22:21.350Z,78.67
2023-03-05T15:24:47.735Z,78.63
2023-03-05T15:27:14.588Z,79.34
2023-03-05T15:29:41.059Z,78.31
2023-03-05T15:32:08.033Z,79.45
2023-03-05T15:34:34.971Z,80.76
2023-03-05T15:37:02.601Z,80.20
2023-03-05T15:39:29.216Z,79.54
2023-03-05T15:41:56.032Z,80.18
2023-03-05T15:44:22.663Z,79.29
2023-03-05T15:46:49.053Z,79.67
2023-03-05T15:49:15.772Z,79.27
2023-03-05T15:51:42.142Z,78.56
2023-03-05T15:54:09.354Z,79.17
2023-03-05T15:56:35.864Z,78.75
2023-03-05T15:59:02.268Z,77.70
2023-03-05T16:01:28.720Z,79.27
2023-03-05T16:03:55.140Z,78.86
2023-03-05T16:06:24.395Z,78.82
2023-03-05T16:08:55.306Z,78.35
2023-03-05T16:11:21.968Z,78.15
2023-03-05T16:13:50.370Z,77.42
2023-03-05T16:16:17.676Z,77.92
2023-03-05T16:18:46.238Z,77.93
2023-03-05T16:21:13.829Z,79.15
2023-03-05T16:23:40.190Z,77.84
2023-03-05T16:26:08.941Z,77.94
2023-03-05T16:28:35.350Z,79.34
2023-03-05T16:31:02.129Z,78.95
2023-03-05T16:33:28.659Z,78.95
2023-03-05T16:36:25.644Z,78.84
2023-03-05T16:38:54.374Z,78.42
2023-03-05T16:41:23.181Z,79.49
2023-03-05T16:43:51.601Z,79.03
2023-03-05T16:46:18.105Z,79.98
2023-03-05T16:48:45.046Z,79.43
2023-03-05T16:51:12.691Z,79.11
2023-03-05T16:53:39.961Z,79.40
2023-03-05T16:56:08.530Z,78.98
2023-03-05T16:58:36.323Z,79.09
2023-03-05T17:01:03.665Z,79.35
2023-03-05T17:03:30.372Z,80.38
2023-03-05T17:05:56.736Z,79.87
2023-03-05T17:08:24.362Z,80.12
2023-03-05T17:10:51.253Z,79.78
2023-03-05T17:13:17.640Z,79.70
2023-03-05T17:18:15.253Z,80.02
2023-03-05T17:20:41.625Z,80.87
2023-03-05T17:23:08.041Z,79.36
2023-03-05T17:25:36.681Z,80.56
2023-03-05T17:28:03.212Z,80.19
2023-03-05T17:30:32.062Z,80.33
2023-03-05T17:32:58.709Z,80.14
2023-03-05T17:35:25.219Z,80.57
2023-03-05T17:37:53.445Z,81.50
2023-03-05T17:40:19.884Z,81.37
2023-03-05T17:42:46.240Z,81.81
2023-03-05T17:45:13.081Z,80.77
2023-03-05T17:47:39.777Z,81.08
2023-03-05T17:50:07.993Z,81.05
2023-03-05T17:52:38.142Z,80.92
2023-03-05T17:55:08.978Z,80.71
2023-03-05T17:57:41.340Z,80.75
2023-03-05T18:00:15.340Z,80.89
2023-03-05T18:02:41.778Z,80.92
2023-03-05T18:05:08.846Z,81.21
2023-03-05T18:07:35.372Z,80.79
2023-03-05T18:10:03.231Z,81.62
2023-03-05T18:12:29.767Z,82.04
2023-03-05T18:14:56.213Z,81.37
2023-03-05T18:17:22.841Z,81.28
2023-03-05T18:19:49.846Z,81.54
2023-03-05T18:22:16.217Z,81.22
2023-03-05T18:24:42.575Z,81.15
2023-03-05T18:27:08.909Z,80.62
2023-03-05T18:29:35.412Z,81.08
2023-03-05T18:32:01.841Z,82.03
2023-03-05T18:34:28.290Z,82.06
2023-03-05T18:36:54.705Z,82.76
2023-03-05T18:39:21.485Z,82.97
2023-03-05T18:41:48.259Z,83.53
2023-03-05T18:44:15.245Z,83.03
2023-03-05T18:46:41.784Z,83.15
2023-03-05T18:49:11.835Z,83.35
2023-03-05T18:51:41.486Z,84.51
2023-03-05T18:54:09.487Z,83.82
2023-03-05T18:56:35.872Z,84.79
2023-03-05T18:59:02.243Z,84.27
2023-03-05T19:01:28.743Z,84.43
2023-03-05T19:03:55.469Z,84.71
2023-03-05T19:06:21.816Z,85.33
2023-03-05T19:08:56.520Z,85.64
2023-03-05T19:11:23.389Z,85.04
2023-03-05T19:13:52.137Z,85.39
2023-03-05T19:16:29.140Z,85.29
2023-03-05T19:19:16.433Z,84.90
2023-03-05T19:21:45.513Z,86.97
2023-03-05T19:24:12.187Z,86.76
2023-03-05T19:26:39.140Z,86.01
2023-03-05T19:29:07.443Z,87.70
2023-03-05T19:31:33.956Z,87.73
2023-03-05T19:34:01.158Z,88.84
2023-03-05T19:36:27.663Z,88.47
2023-03-05T19:38:54.276Z,88.36
2023-03-05T19:41:21.602Z,88.00
2023-03-05T19:43:51.954Z,88.22
2023-03-05T19:46:18.564Z,88.72
2023-03-05T19:48:45.486Z,86.95
2023-03-05T19:51:14.654Z,88.14
2023-03-05T19:53:42.140Z,88.66
2023-03-05T19:56:09.782Z,88.37
2023-03-05T19:58:37.366Z,87.71
2023-03-05T20:01:36.815Z,88.21
2023-03-05T20:04:05.067Z,88.30
2023-03-05T20:06:32.768Z,89.42
2023-03-05T20:08:59.326Z,88.49
2023-03-05T20:11:26.639Z,89.96
2023-03-05T20:13:55.219Z,89.75
2023-03-05T20:16:23.607Z,89.61
2023-03-05T20:18:54.662Z,89.41
2023-03-05T20:21:23.709Z,90.27
2023-03-05T20:23:55.913Z,90.32
2023-03-05T20:26:23.700Z,90.47
2023-03-05T20:28:50.292Z,89.22
2023-03-05T20:31:21.965Z,88.02
2023-03-05T20:33:49.309Z,87.57
2023-03-05T20:36:15.820Z,88.15
2023-03-05T20:38:42.552Z,87.49
2023-03-05T20:41:11.451Z,87.58
2023-03-05T20:43:42.515Z,87.78
2023-03-05T20:46:24.087Z,87.07
2023-03-05T20:48:53.470Z,87.64
2023-03-05T20:51:29.738Z,87.47
2023-03-05T20:54:02.181Z,86.38
2023-03-05T20:56:29.476Z,87.05
2023-03-05T20:58:58.073Z,86.75
2023-03-05T21:01:25.172Z,86.46
2023-03-05T21:03:53.597Z,87.10
2023-03-05T21:06:20.015Z,87.11
2023-03-05T21:08:46.366Z,86.51
2023-03-05T21:11:13.709Z,88.01
2023-03-05T21:13:40.114Z,87.80
2023-03-05T21:16:12.014Z,87.49
2023-03-05T21:18:38.368Z,86.55
2023-03-05T21:21:05.574Z,86.28
2023-03-05T21:23:32.559Z,85.81
2023-03-05T21:25:59.201Z,86.42
2023-03-05T21:28:25.666Z,85.64
2023-03-05T21:30:54.192Z,85.75
2023-03-05T21:33:22.991Z,85.47
2023-03-05T21:35:52.641Z,85.84
2023-03-05T21:38:22.896Z,86.25
2023-03-05T21:40:50.306Z,85.88
2023-03-05T21:43:19.906Z,84.91
2023-03-05T21:45:47.193Z,85.46
2023-03-05T21:48:14.152Z,84.73
2023-03-05T21:50:42.084Z,83.73
2023-03-05T21:53:08.651Z,84.43
2023-03-05T21:55:46.229Z,83.81
2023-03-05T21:58:12.878Z,83.43
2023-03-05T22:00:39.232Z,84.25
2023-03-05T22:03:05.619Z,85.39
2023-03-05T22:05:31.993Z,84.50
2023-03-05T22:07:58.328Z,85.18
2023-03-05T22:10:24.803Z,84.88
2023-03-05T22:13:11.872Z,84.89
2023-03-05T22:15:49.820Z,84.43
2023-03-05T22:18:19.509Z,84.21
2023-03-05T22:20:47.072Z,84.34
2023-03-05T22:23:14.019Z,83.79
2023-03-05T22:25:41.261Z,84.54
2023-03-05T22:28:09.241Z,84.05
2023-03-05T22:30:35.918Z,84.74
2023-03-05T22:33:02.926Z,84.67
2023-03-05T22:35:30.171Z,84.79
2023-03-05T22:37:57.746Z,83.94
2023-03-05T22:40:24.158Z,84.11
2023-03-05T22:42:50.656Z,84.55
2023-03-05T22:45:18.711Z,84.44
2023-03-05T22:47:49.749Z,84.84
2023-03-05T22:50:17.633Z,84.54
2023-03-05T22:52:44.164Z,84.82
2023-03-05T22:55:12.927Z,83.96
2023-03-05T22:57:39.904Z,84.95
2023-03-05T23:00:11.104Z,85.14
2023-03-05T23:02:37.458Z,84.68
2023-03-05T23:05:04.059Z,85.02
2023-03-05T23:07:34.708Z,84.42
2023-03-05T23:10:13.028Z,85.46
2023-03-05T23:12:44.482Z,84.79
2023-03-05T23:15:13.768Z,85.40
2023-03-05T23:17:40.747Z,85.13
2023-03-05T23:20:10.075Z,85.39
2023-03-05T23:22:37.837Z,86.35
2023-03-05T23:25:04.646Z,86.77
2023-03-05T23:27:31.019Z,87.26
2023-03-05T23:30:19.106Z,86.30
2023-03-05T23:32:54.552Z,86.60
2023-03-05T23:35:33.114Z,86.55
2023-03-05T23:38:01.412Z,86.74
2023-03-05T23:40:31.436Z,87.24
2023-03-05T23:42:58.583Z,86.77
2023-03-05T23:45:26.166Z,86.50
2023-03-05T23:47:52.962Z,86.04
2023-03-05T23:50:25.317Z,86.96
2023-03-05T23:52:53.943Z,86.70
2023-03-05T23:55:24.228Z,86.13
2023-03-05T23:57:51.943Z,86.91
